Time;durP1;ratioP1;P1;durP2;ratioP2;P2;SDS_P1;SDS_P2;PMS_P1;PMS_P2;Temp;Humidity;BMP_temperature;BMP_pressure;BME280_temperature;BME280_humidity;BME280_pressure;Samples;Min_cycle;Max_cycle;Signal;HPM_P1;HPM_P2
2021/05/01 00:00:38;;;;;;;28.73;14.77;;;18.00;99.90;;;;;;4974793;28;20081;-80
2021/05/01 00:03:04;;;;;;;26.77;14.10;;;18.00;99.90;;;;;;4974632;28;20093;-72
2021/05/01 00:05:30;;;;;;;21.77;12.18;;;18.00;99.90;;;;;;4974897;28;20030;-73
2021/05/01 00:07:56;;;;;;;23.42;11.98;;;18.10;99.90;;;;;;4974380;28;20358;-79
2021/05/01 00:10:22;;;;;;;23.35;9.90;;;18.00;99.90;;;;;;4974857;28;20469;-73
2021/05/01 00:12:48;;;;;;;18.75;8.88;;;18.00;99.90;;;;;;4975014;28;20031;-79
2021/05/01 00:15:14;;;;;;;16.95;8.20;;;17.90;99.90;;;;;;4974556;28;20027;-79
2021/05/01 00:17:40;;;;;;;15.00;8.02;;;17.90;99.90;;;;;;4974750;28;20041;-77
2021/05/01 00:20:07;;;;;;;13.63;7.80;;;17.80;99.90;;;;;;4961110;28;20109;-76
2021/05/01 00:22:33;;;;;;;16.20;7.32;;;17.80;99.90;;;;;;4977951;28;20023;-79
2021/05/01 00:25:00;;;;;;;15.38;7.88;;;17.80;99.90;;;;;;4977394;28;20027;-72
2021/05/01 00:27:26;;;;;;;12.75;7.65;;;17.70;99.90;;;;;;4977784;28;20058;-80
2021/05/01 00:29:52;;;;;;;16.30;8.40;;;17.60;99.90;;;;;;4978050;28;20481;-80
2021/05/01 00:32:18;;;;;;;15.75;7.55;;;17.60;99.90;;;;;;4977942;28;20051;-78
2021/05/01 00:34:44;;;;;;;17.48;7.60;;;17.60;99.90;;;;;;4977691;28;20030;-75
2021/05/01 00:37:10;;;;;;;15.93;7.60;;;17.60;99.90;;;;;;4978111;28;20019;-77
2021/05/01 00:39:36;;;;;;;13.43;7.57;;;17.50;99.90;;;;;;4977992;28;20085;-81
2021/05/01 00:42:02;;;;;;;13.15;7.05;;;17.50;99.90;;;;;;4977980;28;20027;-75
2021/05/01 00:44:28;;;;;;;14.98;6.93;;;17.40;99.90;;;;;;4977624;28;20062;-74
2021/05/01 00:46:54;;;;;;;13.20;7.35;;;17.40;99.90;;;;;;4977553;28;20102;-80
2021/05/01 00:49:20;;;;;;;13.27;6.88;;;17.40;99.90;;;;;;4977554;28;20027;-79
2021/05/01 00:51:46;;;;;;;12.63;7.28;;;17.40;99.90;;;;;;4977682;28;20553;-80
2021/05/01 00:54:12;;;;;;;13.70;6.70;;;17.40;99.90;;;;;;4960252;28;20058;-71
2021/05/01 00:56:38;;;;;;;12.23;7.30;;;17.30;99.90;;;;;;4977404;28;20077;-77
2021/05/01 00:59:04;;;;;;;12.40;7.28;;;17.20;99.90;;;;;;4977942;28;20027;-81
2021/05/01 01:01:31;;;;;;;13.35;7.43;;;17.20;99.90;;;;;;4960238;28;20030;-80
2021/05/01 01:03:56;;;;;;;14.43;7.60;;;17.20;99.90;;;;;;4977529;28;20018;-78
2021/05/01 01:06:22;;;;;;;12.50;7.25;;;17.20;99.90;;;;;;4977399;28;20022;-74
2021/05/01 01:08:48;;;;;;;11.80;7.20;;;17.20;99.90;;;;;;4977175;28;20031;-73
2021/05/01 01:11:14;;;;;;;12.57;7.55;;;17.20;99.90;;;;;;4977579;28;20525;-80
2021/05/01 01:13:40;;;;;;;15.52;7.07;;;17.20;99.90;;;;;;4959675;28;20023;-72
2021/05/01 01:16:07;;;;;;;15.55;7.10;;;17.20;99.90;;;;;;4958937;28;20027;-81
2021/05/01 01:18:33;;;;;;;13.60;7.07;;;17.20;99.90;;;;;;4977195;28;20031;-80
2021/05/01 01:21:03;;;;;;;14.27;7.07;;;17.10;99.90;;;;;;4977285;28;20380;-72
2021/05/01 01:23:29;;;;;;;16.90;7.55;;;17.10;99.90;;;;;;4977017;28;20019;-75
2021/05/01 01:25:55;;;;;;;14.82;7.63;;;17.10;99.90;;;;;;4977086;28;20070;-71
2021/05/01 01:28:21;;;;;;;13.65;7.35;;;17.10;99.90;;;;;;4976876;28;20461;-80
2021/05/01 01:30:48;;;;;;;10.57;7.00;;;17.00;99.90;;;;;;4976915;28;20018;-72
2021/05/01 01:33:14;;;;;;;15.63;7.60;;;16.90;99.90;;;;;;4976997;28;20085;-82
2021/05/01 01:35:40;;;;;;;13.75;7.45;;;17.00;99.90;;;;;;4959343;28;20062;-79
2021/05/01 01:38:07;;;;;;;14.23;7.20;;;17.10;99.90;;;;;;4976965;28;20033;-77
2021/05/01 01:40:39;;;;;;;14.00;7.75;;;16.90;99.90;;;;;;4976697;28;20023;-79
2021/05/01 01:43:05;;;;;;;14.13;7.30;;;17.00;99.90;;;;;;4976859;28;20385;-79
2021/05/01 01:45:31;;;;;;;12.10;7.60;;;17.00;99.90;;;;;;4976817;28;20031;-74
2021/05/01 01:47:58;;;;;;;12.63;7.38;;;17.00;99.90;;;;;;4955821;29;20106;-78
2021/05/01 01:50:24;;;;;;;14.20;7.88;;;16.90;99.90;;;;;;4957512;29;20411;-79
2021/05/01 01:52:51;;;;;;;15.52;7.80;;;16.90;99.90;;;;;;4957413;28;20023;-79
2021/05/01 01:55:19;;;;;;;15.32;7.25;;;16.90;99.90;;;;;;4957350;28;20028;-80
2021/05/01 01:57:46;;;;;;;15.60;7.20;;;17.00;99.90;;;;;;4955821;29;20019;-74
2021/05/01 02:00:16;;;;;;;12.02;7.55;;;16.90;99.90;;;;;;4957047;28;20553;-75
2021/05/01 02:02:42;;;;;;;13.23;7.03;;;16.90;99.90;;;;;;4957059;28;20059;-79
2021/05/01 02:05:09;;;;;;;15.02;7.45;;;16.90;99.90;;;;;;4957156;28;20027;-71
2021/05/01 02:07:35;;;;;;;12.75;7.63;;;16.90;99.90;;;;;;4956687;28;20666;-71
2021/05/01 02:10:06;;;;;;;15.70;7.60;;;16.90;99.90;;;;;;4956671;28;20023;-76
2021/05/01 02:12:37;;;;;;;14.63;7.78;;;17.00;99.90;;;;;;4955582;29;20019;-82
2021/05/01 02:15:13;;;;;;;19.73;8.57;;;16.90;99.90;;;;;;4955813;29;20066;-75
2021/05/01 02:17:41;;;;;;;16.33;8.35;;;16.80;99.90;;;;;;4955588;29;20516;-82
2021/05/01 02:20:09;;;;;;;19.95;8.85;;;16.70;99.90;;;;;;4956815;28;20109;-74
2021/05/01 02:22:35;;;;;;;19.25;8.45;;;16.70;99.90;;;;;;4956997;28;20031;-80
2021/05/01 02:25:02;;;;;;;19.20;8.13;;;16.60;99.90;;;;;;4956888;28;20027;-81
2021/05/01 02:27:31;;;;;;;17.35;10.82;;;16.40;99.90;;;;;;4956548;28;20030;-80
2021/05/01 02:29:57;;;;;;;19.67;11.45;;;16.30;99.90;;;;;;4955302;29;20023;-79
2021/05/01 02:32:23;;;;;;;21.55;11.65;;;16.30;99.90;;;;;;4956485;28;20029;-80
2021/05/01 02:34:48;;;;;;;18.10;11.00;;;16.40;99.90;;;;;;4956624;28;20373;-71
2021/05/01 02:37:14;;;;;;;14.32;9.07;;;16.30;99.90;;;;;;4956750;28;20027;-81
2021/05/01 02:39:40;;;;;;;17.55;10.68;;;16.40;99.90;;;;;;4955434;28;20024;-75
2021/05/01 02:42:06;;;;;;;19.85;9.82;;;16.50;99.90;;;;;;4955506;28;20027;-76
2021/05/01 02:44:33;;;;;;;18.13;10.25;;;16.50;99.90;;;;;;4956658;28;20038;-79
2021/05/01 02:46:59;;;;;;;20.25;10.00;;;16.40;99.90;;;;;;4962149;28;20433;-75
2021/05/01 02:49:25;;;;;;;19.80;10.25;;;16.40;99.90;;;;;;4958087;28;20018;-79
2021/05/01 02:51:51;;;;;;;17.80;10.60;;;16.40;99.90;;;;;;4975454;28;20030;-77
2021/05/01 02:54:17;;;;;;;17.15;9.43;;;16.30;99.90;;;;;;4958186;28;20023;-79
2021/05/01 02:56:43;;;;;;;18.40;9.45;;;16.30;99.90;;;;;;4975474;28;20024;-75
2021/05/01 02:59:09;;;;;;;16.63;10.27;;;16.30;99.90;;;;;;4975535;28;20035;-73
2021/05/01 03:01:35;;;;;;;17.30;10.57;;;16.30;99.90;;;;;;4975629;28;20027;-75
2021/05/01 03:04:01;;;;;;;18.52;10.88;;;16.20;99.90;;;;;;4957764;28;20027;-80
2021/05/01 03:06:31;;;;;;;19.52;10.25;;;16.20;99.90;;;;;;4975553;28;20033;-80
2021/05/01 03:08:57;;;;;;;16.35;10.15;;;16.20;99.90;;;;;;4957827;28;20034;-80
2021/05/01 03:11:22;;;;;;;18.20;10.73;;;16.20;99.90;;;;;;4975563;28;20066;-72
2021/05/01 03:13:49;;;;;;;17.25;10.25;;;16.30;99.90;;;;;;4975307;28;20140;-75
2021/05/01 03:16:15;;;;;;;17.02;9.48;;;16.20;99.90;;;;;;4958175;28;20027;-80
2021/05/01 03:18:41;;;;;;;18.02;10.50;;;16.10;99.90;;;;;;4975288;28;20031;-80
2021/05/01 03:21:07;;;;;;;19.10;10.20;;;16.00;99.90;;;;;;4975134;28;20034;-78
2021/05/01 03:23:33;;;;;;;15.85;9.20;;;16.10;99.90;;;;;;4975176;28;20027;-80
2021/05/01 03:26:02;;;;;;;13.98;9.48;;;16.10;99.90;;;;;;4975168;28;20015;-75
2021/05/01 03:28:28;;;;;;;15.18;9.18;;;16.00;99.90;;;;;;4974929;28;20110;-79
2021/05/01 03:30:54;;;;;;;14.68;7.30;;;16.10;99.90;;;;;;4975147;28;20106;-80
2021/05/01 03:33:21;;;;;;;12.40;7.43;;;16.10;99.90;;;;;;4975111;28;20473;-79
2021/05/01 03:35:47;;;;;;;14.70;8.30;;;16.10;99.90;;;;;;4975073;28;20483;-80
2021/05/01 03:38:16;;;;;;;15.63;9.05;;;16.20;99.90;;;;;;4957893;28;20031;-79
2021/05/01 03:40:42;;;;;;;16.52;9.13;;;16.20;99.90;;;;;;4957231;28;20486;-73
2021/05/01 03:43:09;;;;;;;17.15;9.32;;;16.20;99.90;;;;;;4975046;28;20030;-80
2021/05/01 03:45:36;;;;;;;13.90;8.05;;;16.20;99.90;;;;;;4957474;28;20027;-75
2021/05/01 03:48:03;;;;;;;17.15;10.18;;;16.30;99.90;;;;;;4954259;29;20068;-75
2021/05/01 03:50:30;;;;;;;18.98;10.68;;;16.30;99.90;;;;;;4955851;28;20020;-73
2021/05/01 03:52:56;;;;;;;16.33;10.38;;;16.30;99.90;;;;;;4957912;28;20381;-75
2021/05/01 03:55:22;;;;;;;16.40;11.00;;;16.40;99.90;;;;;;4959473;28;20019;-81
2021/05/01 03:57:51;;;;;;;17.02;10.52;;;16.30;99.90;;;;;;4959731;28;20038;-75
2021/05/01 04:00:18;;;;;;;20.15;10.73;;;16.30;99.90;;;;;;4958321;29;20122;-80
2021/05/01 04:02:44;;;;;;;16.77;9.68;;;16.40;99.90;;;;;;4959625;28;20504;-73
2021/05/01 04:05:12;;;;;;;16.67;10.68;;;16.30;99.90;;;;;;4959483;28;20027;-74
2021/05/01 04:07:48;;;;;;;17.83;10.77;;;16.10;99.90;;;;;;4957928;29;20031;-78
2021/05/01 04:10:15;;;;;;;15.80;10.00;;;16.10;99.90;;;;;;4958153;29;20031;-81
2021/05/01 04:12:40;;;;;;;16.33;9.27;;;16.20;99.90;;;;;;4959386;28;20031;-75
2021/05/01 04:15:07;;;;;;;16.75;9.80;;;16.20;99.90;;;;;;4957825;29;20023;-81
2021/05/01 04:17:34;;;;;;;17.08;10.82;;;16.20;99.90;;;;;;4958930;28;20027;-78
2021/05/01 04:20:03;;;;;;;15.85;9.98;;;16.10;99.90;;;;;;4958176;29;20613;-79
2021/05/01 04:22:32;;;;;;;17.05;10.05;;;16.20;99.90;;;;;;4958019;29;20027;-73
2021/05/01 04:24:59;;;;;;;20.85;10.35;;;16.30;99.90;;;;;;4957911;29;20030;-73
2021/05/01 04:27:25;;;;;;;20.33;10.45;;;16.40;99.90;;;;;;4959214;28;20020;-75
2021/05/01 04:29:51;;;;;;;19.65;10.43;;;16.40;99.90;;;;;;4958918;29;20087;-79
2021/05/01 04:32:16;;;;;;;14.90;9.15;;;16.40;99.90;;;;;;4958647;28;20031;-74
2021/05/01 04:34:42;;;;;;;13.77;9.50;;;16.40;99.90;;;;;;4958959;28;20024;-76
2021/05/01 04:37:09;;;;;;;17.65;9.82;;;16.40;99.90;;;;;;4958987;28;20027;-81
2021/05/01 04:39:35;;;;;;;16.23;9.32;;;16.40;99.90;;;;;;4958669;29;20055;-79
2021/05/01 04:42:02;;;;;;;16.50;9.88;;;16.50;99.90;;;;;;4958961;28;20051;-77
2021/05/01 04:44:30;;;;;;;13.00;9.00;;;16.40;99.90;;;;;;4958793;28;20035;-74
2021/05/01 04:46:56;;;;;;;18.00;9.75;;;16.50;99.90;;;;;;4964185;28;20465;-79
2021/05/01 04:49:22;;;;;;;16.90;11.02;;;16.60;99.90;;;;;;4977988;28;20465;-81
2021/05/01 04:51:48;;;;;;;19.70;9.82;;;16.50;99.90;;;;;;4977552;28;20023;-80
2021/05/01 04:54:14;;;;;;;16.05;10.30;;;16.60;99.90;;;;;;4960465;28;20025;-73
2021/05/01 04:56:40;;;;;;;17.80;9.40;;;16.70;99.90;;;;;;4977708;28;20027;-78
2021/05/01 04:59:07;;;;;;;17.27;8.90;;;16.80;99.90;;;;;;4977980;28;20102;-81
2021/05/01 05:01:34;;;;;;;19.00;10.88;;;16.80;99.90;;;;;;4960062;28;20054;-81
2021/05/01 05:04:01;;;;;;;14.52;8.95;;;16.80;99.90;;;;;;4977201;28;20051;-81
2021/05/01 05:06:27;;;;;;;18.90;11.00;;;16.90;99.90;;;;;;4977839;28;20023;-81
2021/05/01 05:08:53;;;;;;;19.42;11.77;;;17.00;99.90;;;;;;4960450;28;20347;-73
2021/05/01 05:11:19;;;;;;;19.77;11.05;;;17.00;99.90;;;;;;4960218;28;20066;-77
2021/05/01 05:13:44;;;;;;;12.45;9.00;;;17.00;99.90;;;;;;4977509;28;20018;-80
2021/05/01 05:16:10;;;;;;;13.50;9.00;;;17.10;99.90;;;;;;4977626;28;20023;-79
2021/05/01 05:18:36;;;;;;;28.20;17.08;;;17.00;99.90;;;;;;4977447;28;20110;-81
2021/05/01 05:21:03;;;;;;;26.17;17.58;;;17.00;99.90;;;;;;4977785;28;20487;-80
2021/05/01 05:23:32;;;;;;;18.50;14.07;;;17.00;99.90;;;;;;4977360;28;20023;-75
2021/05/01 05:25:58;;;;;;;17.40;12.55;;;17.00;99.90;;;;;;4977587;28;20355;-73
2021/05/01 05:28:24;;;;;;;17.10;13.40;;;17.20;99.90;;;;;;4976748;28;20049;-78
2021/05/01 05:30:50;;;;;;;18.58;13.82;;;17.20;99.90;;;;;;4976569;28;20477;-72
2021/05/01 05:33:16;;;;;;;18.42;13.15;;;17.10;99.90;;;;;;4959508;28;20433;-77
2021/05/01 05:35:42;;;;;;;18.23;12.63;;;17.20;99.90;;;;;;4976694;28;20023;-72
2021/05/01 05:38:08;;;;;;;24.83;13.98;;;17.20;99.90;;;;;;4977217;28;20126;-71
2021/05/01 05:40:34;;;;;;;17.05;11.30;;;17.20;99.90;;;;;;4976469;28;20497;-72
2021/05/01 05:43:01;;;;;;;14.63;10.35;;;17.40;99.90;;;;;;4976603;28;20031;-76
2021/05/01 05:45:30;;;;;;;14.40;10.63;;;17.60;99.90;;;;;;4976678;28;20046;-71
2021/05/01 05:47:57;;;;;;;17.95;11.35;;;17.60;99.90;;;;;;4976472;28;20393;-72
2021/05/01 05:50:23;;;;;;;19.45;13.10;;;17.50;99.90;;;;;;4978726;28;20049;-72
2021/05/01 05:52:49;;;;;;;18.45;11.73;;;17.50;99.90;;;;;;4990683;28;20102;-72
2021/05/01 05:55:15;;;;;;;18.05;11.48;;;17.50;99.90;;;;;;4995826;28;20109;-73
2021/05/01 05:57:52;;;;;;;18.80;12.25;;;17.50;99.90;;;;;;4977522;28;20026;-73
2021/05/01 06:00:20;;;;;;;17.52;13.48;;;17.50;99.90;;;;;;4986535;28;20490;-77
2021/05/01 06:02:46;;;;;;;22.23;15.10;;;17.40;99.90;;;;;;4984214;28;20022;-73
2021/05/01 06:05:32;;;;;;;23.13;18.20;;;17.50;99.90;;;;;;4976868;28;20465;-79
2021/05/01 06:08:07;;;;;;;22.13;17.30;;;17.60;99.90;;;;;;4976174;28;20037;-76
2021/05/01 06:10:34;;;;;;;26.15;21.50;;;17.60;99.90;;;;;;4976262;28;20038;-71
2021/05/01 06:13:03;;;;;;;38.45;26.58;;;17.80;99.90;;;;;;4959035;28;20503;-72
2021/05/01 06:15:30;;;;;;;30.15;26.85;;;17.80;99.90;;;;;;4958493;28;20019;-78
2021/05/01 06:17:59;;;;;;;30.90;23.38;;;17.80;99.90;;;;;;4976205;28;20488;-74
2021/05/01 06:20:27;;;;;;;41.08;26.92;;;17.90;99.90;;;;;;4958548;28;20027;-73
2021/05/01 06:22:54;;;;;;;40.38;26.95;;;18.00;99.90;;;;;;4976051;28;20469;-77
2021/05/01 06:25:20;;;;;;;35.38;23.98;;;18.00;99.90;;;;;;4975530;28;20023;-72
2021/05/01 06:27:50;;;;;;;28.42;17.60;;;18.00;99.90;;;;;;4975882;28;20027;-74
2021/05/01 06:30:16;;;;;;;22.77;15.70;;;18.20;99.90;;;;;;4975736;28;20021;-74
2021/05/01 06:32:43;;;;;;;21.38;14.65;;;18.30;99.90;;;;;;4975512;28;20023;-77
2021/05/01 06:35:09;;;;;;;22.08;15.07;;;18.40;99.90;;;;;;4958231;28;20033;-73
2021/05/01 06:37:39;;;;;;;28.60;14.57;;;18.60;99.90;;;;;;4975701;28;20037;-76
2021/05/01 06:40:08;;;;;;;25.38;15.30;;;18.70;99.90;;;;;;4975704;28;20031;-76
2021/05/01 06:42:39;;;;;;;19.30;13.77;;;18.70;99.90;;;;;;4958212;28;20031;-71
2021/05/01 06:45:09;;;;;;;18.80;13.88;;;18.90;99.90;;;;;;4975641;28;20085;-73
2021/05/01 06:47:44;;;;;;;25.15;14.48;;;18.80;99.90;;;;;;4975247;28;20043;-74
2021/05/01 06:50:12;;;;;;;19.80;14.38;;;18.80;99.90;;;;;;4975355;28;20030;-75
2021/05/01 06:52:40;;;;;;;19.25;14.48;;;18.80;99.90;;;;;;4958090;28;20027;-72
2021/05/01 06:55:07;;;;;;;18.67;15.38;;;18.90;99.90;;;;;;4974833;28;20027;-73
2021/05/01 06:57:36;;;;;;;20.00;14.25;;;19.20;99.90;;;;;;4975035;28;20038;-76
2021/05/01 07:00:08;;;;;;;22.17;13.00;;;19.40;99.90;;;;;;4975563;28;20027;-72
2021/05/01 07:02:40;;;;;;;18.15;13.40;;;19.40;99.90;;;;;;4975196;28;20106;-76
2021/05/01 07:05:14;;;;;;;21.35;14.32;;;19.50;99.90;;;;;;4957624;28;20054;-72
2021/05/01 07:07:41;;;;;;;25.13;16.45;;;19.60;99.90;;;;;;4974906;28;20027;-72
2021/05/01 07:10:08;;;;;;;23.98;15.32;;;19.70;99.90;;;;;;4974929;28;20022;-74
2021/05/01 07:12:35;;;;;;;21.88;16.05;;;19.80;99.90;;;;;;4957929;28;20038;-72
2021/05/01 07:15:05;;;;;;;20.20;14.23;;;20.00;99.90;;;;;;4975120;28;20023;-72
2021/05/01 07:17:32;;;;;;;19.88;12.75;;;20.00;99.90;;;;;;4975157;28;20022;-74
2021/05/01 07:20:00;;;;;;;15.63;11.82;;;20.10;99.90;;;;;;4975075;28;20039;-72
2021/05/01 07:22:26;;;;;;;15.93;11.30;;;20.30;99.90;;;;;;4974996;28;20074;-73
2021/05/01 07:24:53;;;;;;;16.48;11.88;;;20.30;99.90;;;;;;4974901;28;20030;-75
2021/05/01 07:27:26;;;;;;;17.60;11.73;;;20.50;99.90;;;;;;4974274;28;20031;-71
2021/05/01 07:29:58;;;;;;;16.08;11.15;;;20.70;99.90;;;;;;4957505;28;20023;-74
2021/05/01 07:32:29;;;;;;;15.50;10.95;;;20.90;99.90;;;;;;4974572;28;20030;-75
2021/05/01 07:34:57;;;;;;;18.08;12.10;;;21.00;99.90;;;;;;4975063;28;20372;-74
2021/05/01 07:37:27;;;;;;;18.45;11.98;;;21.00;99.90;;;;;;4974633;28;20540;-77
2021/05/01 07:39:53;;;;;;;16.02;11.30;;;21.30;99.90;;;;;;4974802;28;20023;-76
2021/05/01 07:42:22;;;;;;;16.42;10.45;;;21.60;99.60;;;;;;4974913;28;20023;-74
2021/05/01 07:44:54;;;;;;;15.45;10.65;;;21.90;98.00;;;;;;4974544;28;20117;-73
2021/05/01 07:47:23;;;;;;;17.85;11.18;;;22.20;98.40;;;;;;4974062;28;20051;-72
2021/05/01 07:49:52;;;;;;;13.07;9.70;;;22.40;98.70;;;;;;4974496;28;20026;-74
2021/05/01 07:52:18;;;;;;;15.48;9.60;;;22.40;97.10;;;;;;4974071;28;20031;-75
2021/05/01 07:54:44;;;;;;;17.25;10.35;;;22.50;96.60;;;;;;4974563;28;20027;-73
2021/05/01 07:57:11;;;;;;;16.02;9.43;;;22.80;97.30;;;;;;4974773;28;20497;-74
2021/05/01 07:59:38;;;;;;;14.52;7.97;;;23.10;96.60;;;;;;4974461;28;20077;-75
2021/05/01 08:02:05;;;;;;;12.40;7.93;;;23.30;95.50;;;;;;4974400;28;20015;-75
2021/05/01 08:04:31;;;;;;;11.13;6.90;;;23.30;94.60;;;;;;4974658;28;20358;-76
2021/05/01 08:06:58;;;;;;;9.98;6.35;;;23.50;95.80;;;;;;4974274;28;20497;-75
2021/05/01 08:09:24;;;;;;;15.00;6.93;;;23.70;94.50;;;;;;4957085;28;20469;-73
2021/05/01 08:11:50;;;;;;;11.30;5.65;;;23.90;94.50;;;;;;4974260;28;20038;-71
2021/05/01 08:14:16;;;;;;;9.80;6.15;;;24.10;93.70;;;;;;4974221;28;20031;-72
2021/05/01 08:16:42;;;;;;;11.13;6.15;;;24.20;92.90;;;;;;4956786;28;20027;-70
2021/05/01 08:19:08;;;;;;;15.07;6.80;;;24.30;91.80;;;;;;4973903;28;20061;-75
2021/05/01 08:21:36;;;;;;;11.10;7.10;;;24.30;94.20;;;;;;4973897;28;20369;-70
2021/05/01 08:24:04;;;;;;;12.43;6.10;;;24.60;92.20;;;;;;4957111;28;20030;-73
2021/05/01 08:26:30;;;;;;;12.45;6.93;;;24.90;91.00;;;;;;4974383;28;20098;-72
2021/05/01 08:28:56;;;;;;;10.32;6.13;;;25.00;91.70;;;;;;4974230;28;20049;-75
2021/05/01 08:31:22;;;;;;;11.73;6.60;;;25.10;90.30;;;;;;4974244;28;20094;-75
2021/05/01 08:33:48;;;;;;;14.48;7.70;;;25.20;90.50;;;;;;4974082;28;20038;-75
2021/05/01 08:36:14;;;;;;;10.93;6.30;;;25.50;91.30;;;;;;4974027;28;20065;-76
2021/05/01 08:38:42;;;;;;;11.70;6.00;;;25.70;89.80;;;;;;4974707;28;20031;-71
2021/05/01 08:41:08;;;;;;;11.57;5.25;;;25.50;87.50;;;;;;4960015;28;20350;-75
2021/05/01 08:43:34;;;;;;;11.73;5.72;;;25.60;87.40;;;;;;4977600;28;20034;-76
2021/05/01 08:46:01;;;;;;;18.27;7.47;;;25.70;90.20;;;;;;4977246;28;20125;-71
2021/05/01 08:48:28;;;;;;;13.45;7.03;;;25.90;85.10;;;;;;4977328;28;20126;-72
2021/05/01 08:51:02;;;;;;;12.68;6.15;;;26.00;86.50;;;;;;4978155;28;20503;-73
2021/05/01 08:53:29;;;;;;;11.55;6.25;;;26.00;84.00;;;;;;4977400;28;20026;-74
2021/05/01 08:55:54;;;;;;;16.10;6.63;;;26.20;85.60;;;;;;4959970;28;20413;-73
2021/05/01 08:58:21;;;;;;;13.07;9.02;;;26.40;86.10;;;;;;4978627;28;20496;-71
2021/05/01 09:00:48;;;;;;;19.13;12.18;;;26.30;82.40;;;;;;4978020;28;20042;-73
2021/05/01 09:03:18;;;;;;;14.98;7.75;;;26.00;78.60;;;;;;4975531;28;20037;-72
2021/05/01 09:05:45;;;;;;;14.38;7.15;;;25.90;86.60;;;;;;4976434;28;20078;-72
2021/05/01 09:08:16;;;;;;;14.98;9.15;;;26.00;88.40;;;;;;4976144;28;20489;-75
2021/05/01 09:10:45;;;;;;;12.70;7.38;;;26.00;84.40;;;;;;4976706;28;20105;-72
2021/05/01 09:13:26;;;;;;;15.05;9.40;;;26.30;82.70;;;;;;4976727;28;20031;-76
2021/05/01 09:15:56;;;;;;;20.08;9.50;;;26.70;81.60;;;;;;4977302;28;20023;-74
2021/05/01 09:18:22;;;;;;;14.77;7.38;;;26.70;80.90;;;;;;4959901;28;20081;-73
2021/05/01 09:20:48;;;;;;;18.65;11.82;;;26.60;74.60;;;;;;4977524;28;20027;-77
2021/05/01 09:23:14;;;;;;;12.60;6.35;;;26.60;75.90;;;;;;4977447;28;20077;-71
2021/05/01 09:25:57;;;;;;;14.45;7.13;;;26.60;74.60;;;;;;4976709;28;20019;-78
2021/05/01 09:28:24;;;;;;;11.35;4.93;;;26.70;72.40;;;;;;4977404;28;20521;-74
2021/05/01 09:31:08;;;;;;;11.93;6.07;;;26.90;74.40;;;;;;4975783;28;20528;-71
2021/05/01 09:33:35;;;;;;;;;;;27.00;75.50;;;;;;4974902;28;20019;-71
2021/05/01 09:36:10;;;;;;;16.63;6.50;;;27.30;73.00;;;;;;4975462;28;19906;-72
2021/05/01 09:38:43;;;;;;;21.95;10.43;;;27.30;73.00;;;;;;4977453;28;20022;-72
2021/05/01 09:41:14;;;;;;;16.42;6.40;;;27.40;72.00;;;;;;4986227;28;20388;-71
2021/05/01 09:44:05;;;;;;;18.48;8.55;;;27.40;68.80;;;;;;4968592;28;20030;-71
2021/05/01 09:46:46;;;;;;;12.93;7.10;;;27.40;68.30;;;;;;4993064;28;20037;-72
2021/05/01 09:49:13;;;;;;;20.95;6.85;;;27.50;72.30;;;;;;4997024;28;20118;-71
2021/05/01 09:51:59;;;;;;;17.17;6.15;;;27.70;74.00;;;;;;4996701;28;20057;-75
2021/05/01 09:54:40;;;;;;;16.20;7.85;;;27.80;70.50;;;;;;4940180;29;20027;-73
2021/05/01 09:57:15;;;;;;;14.23;6.05;;;27.90;70.80;;;;;;4957157;29;20027;-72
2021/05/01 09:59:45;;;;;;;14.57;6.43;;;27.80;72.30;;;;;;4957016;29;20381;-70
2021/05/01 10:02:22;;;;;;;13.43;5.32;;;28.00;74.40;;;;;;4957176;29;20028;-72
2021/05/01 10:05:03;;;;;;;18.65;6.13;;;28.10;70.10;;;;;;4957326;29;20038;-72
2021/05/01 10:07:30;;;;;;;25.35;9.25;;;27.80;66.50;;;;;;4957036;29;20058;-73
2021/05/01 10:09:58;;;;;;;21.98;8.48;;;27.60;69.10;;;;;;4957065;29;20031;-74
2021/05/01 10:12:35;;;;;;;16.08;6.38;;;27.80;71.40;;;;;;4957181;29;20033;-73
2021/05/01 10:15:13;;;;;;;19.23;5.90;;;28.20;71.60;;;;;;4956837;29;20020;-77
2021/05/01 10:17:39;;;;;;;17.23;6.38;;;28.40;70.50;;;;;;4957570;29;20054;-75
2021/05/01 10:20:07;;;;;;;19.85;7.50;;;28.60;68.40;;;;;;4956702;29;20039;-72
2021/05/01 10:22:42;;;;;;;16.42;6.75;;;28.90;68.30;;;;;;4956402;29;20027;-73
2021/05/01 10:25:17;;;;;;;23.70;13.57;;;29.00;67.30;;;;;;4956724;29;20031;-72
2021/05/01 10:27:46;;;;;;;17.48;6.88;;;29.10;67.60;;;;;;4938958;29;20378;-74
2021/05/01 10:30:37;;;;;;;14.82;5.70;;;29.30;65.20;;;;;;4937580;29;20062;-71
2021/05/01 10:33:17;;;;;;;12.60;5.35;;;29.30;67.70;;;;;;4956516;29;20425;-73
2021/05/01 10:36:09;;;;;;;14.88;6.32;;;29.40;66.70;;;;;;4956957;29;20039;-72
2021/05/01 10:38:37;;;;;;;15.93;6.07;;;28.90;67.00;;;;;;4956566;29;20511;-79
2021/05/01 10:41:17;;;;;;;17.73;8.32;;;28.60;66.30;;;;;;4956228;29;20023;-72
2021/05/01 10:43:52;;;;;;;16.30;6.57;;;28.40;63.10;;;;;;4938677;29;20037;-71
2021/05/01 10:46:41;;;;;;;14.80;5.85;;;28.80;66.80;;;;;;4956745;29;20023;-71
2021/05/01 10:49:10;;;;;;;16.73;6.80;;;28.70;67.30;;;;;;4956620;29;20035;-72
2021/05/01 10:51:41;;;;;;;16.80;6.07;;;28.30;67.00;;;;;;4938970;29;20027;-74
2021/05/01 10:54:08;;;;;;;12.77;5.40;;;28.40;67.50;;;;;;4956024;29;20038;-71
2021/05/01 10:56:34;;;;;;;15.50;5.65;;;28.50;69.90;;;;;;4979613;28;20363;-72
2021/05/01 10:59:08;;;;;;;13.38;6.03;;;28.60;66.30;;;;;;4994471;28;20060;-70
2021/05/01 11:01:48;;;;;;;16.08;5.60;;;28.60;68.50;;;;;;4993841;28;20354;-71
2021/05/01 11:04:25;;;;;;;11.32;5.10;;;28.50;68.60;;;;;;4995402;28;20448;-71
2021/05/01 11:07:13;;;;;;;14.68;5.00;;;28.30;68.00;;;;;;4995459;28;20033;-78
2021/05/01 11:09:40;;;;;;;10.85;4.38;;;28.10;67.80;;;;;;4994722;28;20107;-70
2021/05/01 11:12:11;;;;;;;18.05;5.18;;;27.90;68.00;;;;;;4995632;28;20077;-70
2021/05/01 11:14:49;;;;;;;23.20;12.20;;;27.90;66.90;;;;;;4994686;28;20026;-70
2021/05/01 11:17:30;;;;;;;20.00;8.18;;;28.10;70.00;;;;;;4994407;28;20044;-76
2021/05/01 11:20:12;;;;;;;12.05;5.50;;;28.30;69.30;;;;;;4977250;28;20031;-70
2021/05/01 11:22:40;;;;;;;13.73;5.68;;;28.60;67.10;;;;;;4994634;28;20030;-70
2021/05/01 11:25:09;;;;;;;16.88;5.68;;;28.70;67.50;;;;;;4994670;28;20474;-70
2021/05/01 11:27:36;;;;;;;16.38;6.75;;;28.60;62.70;;;;;;4994462;28;20083;-75
2021/05/01 11:30:04;;;;;;;16.27;6.53;;;28.60;64.10;;;;;;4977158;28;20511;-76
2021/05/01 11:32:34;;;;;;;16.75;6.18;;;28.50;66.70;;;;;;4994480;28;20484;-74
2021/05/01 11:35:19;;;;;;;19.55;7.80;;;28.30;65.90;;;;;;4994223;28;20073;-72
2021/05/01 11:37:58;;;;;;;15.25;5.90;;;28.20;62.80;;;;;;4976431;28;20559;-71
2021/05/01 11:40:31;;;;;;;13.95;4.90;;;28.20;66.00;;;;;;4996494;28;20026;-73
2021/05/01 11:42:58;;;;;;;21.40;10.40;;;28.20;67.80;;;;;;4972246;28;20031;-69
2021/05/01 11:45:51;;;;;;;24.50;13.10;;;28.20;66.20;;;;;;4983119;28;20101;-69
2021/05/01 11:48:36;;;;;;;16.65;5.60;;;28.40;69.20;;;;;;4963079;28;20063;-71
2021/05/01 11:51:05;;;;;;;15.43;4.80;;;28.90;66.20;;;;;;4981547;28;20018;-70
2021/05/01 11:54:20;;;;;;;16.05;4.72;;;29.20;64.40;;;;;;4964954;28;20062;-70
2021/05/01 11:56:51;;;;;;;;;;;29.00;65.00;;;;;;4971225;28;20057;-74
2021/05/01 11:59:19;;;;;;;10.18;4.50;;;28.70;63.20;;;;;;4988105;28;19912;-74
2021/05/01 12:02:04;;;;;;;12.95;4.82;;;28.40;65.90;;;;;;4978481;28;20027;-80
2021/05/01 12:04:51;;;;;;;17.33;4.43;;;28.70;67.20;;;;;;4994456;28;20531;-73
2021/05/01 12:07:44;;;;;;;18.63;4.47;;;29.00;65.70;;;;;;4993741;28;20433;-70
2021/05/01 12:10:16;;;;;;;16.58;4.40;;;29.20;63.80;;;;;;4986103;28;20034;-70
2021/05/01 12:12:50;;;;;;;17.77;4.78;;;29.40;63.80;;;;;;4992756;28;20062;-70
2021/05/01 12:15:17;;;;;;;19.98;5.18;;;29.20;60.80;;;;;;4982329;28;20036;-74
2021/05/01 12:17:53;;;;;;;16.15;4.97;;;29.00;62.90;;;;;;4979015;28;20030;-72
2021/05/01 12:20:23;;;;;;;17.77;6.45;;;28.80;64.60;;;;;;4979448;28;20026;-70
2021/05/01 12:22:49;;;;;;;16.60;6.00;;;28.60;64.10;;;;;;4977839;28;20029;-70
2021/05/01 12:25:30;;;;;;;14.38;5.63;;;28.50;64.90;;;;;;4978137;28;20389;-76
2021/05/01 12:27:57;;;;;;;16.08;4.57;;;28.40;66.30;;;;;;4977773;28;20023;-75
2021/05/01 12:30:39;;;;;;;14.10;4.47;;;28.30;64.80;;;;;;4978107;28;20027;-79
2021/05/01 12:33:24;;;;;;;15.30;4.57;;;28.10;63.40;;;;;;4977697;28;20019;-76
2021/05/01 12:35:54;;;;;;;14.80;4.43;;;28.00;65.20;;;;;;4977889;28;20492;-70
2021/05/01 12:38:23;;;;;;;17.63;4.30;;;27.80;62.20;;;;;;4959846;28;20386;-70
2021/05/01 12:40:50;;;;;;;16.58;4.40;;;27.70;64.20;;;;;;4977441;28;20050;-71
2021/05/01 12:43:30;;;;;;;15.85;4.82;;;27.60;65.60;;;;;;4978236;28;20339;-71